Ujar, Russia
Current Conditions -  °F | °C
As of 6:00 AM on Saturday 25 Oct 2014 (Local Time) from UNKL Reporting Station
Overcast Overcast  
Wind Chill: 11°   Ceiling: 1500
Heat Index: 19°   Visibility: 6mi
Dew Point: 16°   Wind: 7mph
Humidity: 86%   Direction: 120°ESE
Pressure: 30.18"   Gusts: NA
Location:  55.81°N, 94.31°E
Report Text: UNKL 242300Z 12003MPS 9000 BKN015CB OVC083 M07/M09 Q1022 NOSIGRMK QFE740 11////50
Loading
Personal Weather Stations






























Interactive Weather Map
Tropical Storm Tracking
New forecast layout! Learn more

10-Day Weather Forecast

Advertisements
Track Severe Weather on mobile